createdAt,value
2019-01-19T00:02:36.791Z,29.02
2019-01-19T00:05:31.163Z,28.55
2019-01-19T00:08:36.683Z,30.90
2019-01-19T00:11:27.024Z,33.75
2019-01-19T00:14:05.379Z,38.42
2019-01-19T00:16:54.375Z,30.55
2019-01-19T00:20:10.991Z,31.93
2019-01-19T00:23:15.903Z,30.82
2019-01-19T00:26:23.491Z,31.60
2019-01-19T00:28:56.710Z,28.47
2019-01-19T00:31:38.448Z,28.92
2019-01-19T00:34:20.499Z,30.00
2019-01-19T00:37:04.919Z,27.70
2019-01-19T00:39:53.729Z,29.57
2019-01-19T00:42:41.259Z,28.12
2019-01-19T00:46:02.206Z,28.70
2019-01-19T00:49:16.472Z,28.32
2019-01-19T00:52:21.452Z,26.73
2019-01-19T00:55:17.619Z,24.10
2019-01-19T00:58:05.819Z,23.77
2019-01-19T01:00:44.415Z,23.10
2019-01-19T01:03:48.755Z,23.60
2019-01-19T01:06:47.751Z,23.52
2019-01-19T01:09:35.483Z,23.00
2019-01-19T01:12:17.912Z,22.32
2019-01-19T01:15:31.495Z,23.83
2019-01-19T01:18:08.523Z,21.90
2019-01-19T01:21:16.637Z,21.97
2019-01-19T01:24:28.557Z,21.55
2019-01-19T01:27:18.095Z,21.10
2019-01-19T01:32:59.203Z,21.68
2019-01-19T01:36:13.144Z,22.50
2019-01-19T01:39:27.696Z,22.73
2019-01-19T01:42:44.865Z,21.60
2019-01-19T01:45:35.067Z,22.58
2019-01-19T01:48:36.582Z,23.80
2019-01-19T01:51:39.892Z,21.37
2019-01-19T01:54:50.915Z,23.57
2019-01-19T01:57:28.453Z,22.10
2019-01-19T02:00:36.259Z,21.10
2019-01-19T02:03:23.158Z,21.52
2019-01-19T02:06:09.168Z,22.07
2019-01-19T02:09:08.260Z,22.25
2019-01-19T02:11:58.139Z,21.42
2019-01-19T02:14:54.723Z,21.55
2019-01-19T02:18:05.311Z,21.50
2019-01-19T02:21:03.523Z,22.22
2019-01-19T02:23:53.759Z,21.68
2019-01-19T02:27:04.703Z,19.87
2019-01-19T02:29:58.170Z,20.72
2019-01-19T02:32:56.295Z,18.50
2019-01-19T02:36:07.376Z,20.25
2019-01-19T02:39:00.278Z,22.30
2019-01-19T02:42:30.515Z,19.32
2019-01-19T02:45:24.519Z,19.95
2019-01-19T02:48:32.432Z,20.02
2019-01-19T02:51:07.930Z,19.80
2019-01-19T02:54:06.318Z,19.27
2019-01-19T02:57:26.279Z,19.50
2019-01-19T03:00:33.802Z,18.20
2019-01-19T03:03:30.576Z,19.05
2019-01-19T03:06:04.555Z,18.85
2019-01-19T03:09:18.020Z,18.17
2019-01-19T03:12:22.716Z,18.23
2019-01-19T03:14:59.288Z,17.92
2019-01-19T03:17:58.403Z,18.15
2019-01-19T03:20:34.602Z,17.73
2019-01-19T03:23:46.247Z,19.30
2019-01-19T03:26:39.919Z,18.23
2019-01-19T03:29:51.847Z,17.25
2019-01-19T03:33:12.720Z,17.77
2019-01-19T03:36:04.563Z,18.80
2019-01-19T03:39:06.970Z,17.77
2019-01-19T03:41:59.523Z,17.73
2019-01-19T03:44:37.581Z,17.27
2019-01-19T03:47:27.996Z,16.85
2019-01-19T03:50:23.147Z,15.93
2019-01-19T03:53:02.216Z,16.55
2019-01-19T03:56:22.928Z,16.90
2019-01-19T03:59:00.831Z,16.80
2019-01-19T04:01:44.659Z,17.65
2019-01-19T04:04:31.579Z,16.17
2019-01-19T04:07:33.228Z,17.42
2019-01-19T04:10:28.546Z,15.83
2019-01-19T04:13:39.356Z,16.32
2019-01-19T04:16:38.538Z,16.82
2019-01-19T04:19:17.339Z,16.65
2019-01-19T04:22:22.161Z,15.85
2019-01-19T04:25:03.145Z,14.93
2019-01-19T04:27:29.859Z,15.95
2019-01-19T04:29:56.564Z,16.85
2019-01-19T04:32:23.263Z,15.63
2019-01-19T04:34:49.980Z,14.60
2019-01-19T04:37:16.683Z,16.17
2019-01-19T04:39:43.379Z,15.93
2019-01-19T04:42:10.582Z,15.28
2019-01-19T04:44:37.387Z,15.50
2019-01-19T04:47:04.195Z,14.75
2019-01-19T04:49:30.910Z,14.68
2019-01-19T04:51:57.608Z,15.72
2019-01-19T04:54:24.305Z,15.35
2019-01-19T04:56:51.061Z,14.30
2019-01-19T04:59:17.815Z,14.38
2019-01-19T05:01:44.527Z,13.80
2019-01-19T05:04:11.334Z,13.90
2019-01-19T05:06:38.038Z,13.28
2019-01-19T05:09:06.635Z,13.70
2019-01-19T05:11:33.331Z,15.78
2019-01-19T05:14:00.475Z,15.00
2019-01-19T05:16:27.279Z,14.70
2019-01-19T05:18:53.993Z,15.03
2019-01-19T05:21:21.291Z,14.28
2019-01-19T05:23:48.086Z,15.05
2019-01-19T05:26:14.898Z,14.28
2019-01-19T05:28:41.587Z,14.58
2019-01-19T05:31:08.399Z,13.48
2019-01-19T05:33:35.100Z,13.88
2019-01-19T05:36:01.803Z,14.07
2019-01-19T05:38:28.507Z,14.30
2019-01-19T05:40:55.239Z,14.75
2019-01-19T05:43:21.947Z,14.43
2019-01-19T05:45:48.655Z,14.98
2019-01-19T05:48:15.364Z,14.50
2019-01-19T05:50:42.063Z,14.58
2019-01-19T05:53:08.775Z,14.65
2019-01-19T05:55:35.476Z,14.65
2019-01-19T05:58:02.263Z,13.58
2019-01-19T06:00:31.693Z,14.60
2019-01-19T06:02:58.492Z,14.58
2019-01-19T06:05:25.416Z,14.78
2019-01-19T06:07:52.257Z,14.15
2019-01-19T06:10:19.140Z,14.33
2019-01-19T06:12:45.911Z,14.07
2019-01-19T06:15:13.566Z,14.58
2019-01-19T06:17:40.320Z,14.47
2019-01-19T06:20:08.889Z,14.85
2019-01-19T06:22:35.641Z,14.95
2019-01-19T06:25:02.754Z,15.53
2019-01-19T06:27:29.556Z,14.13
2019-01-19T06:29:56.256Z,15.03
2019-01-19T06:32:23.103Z,14.90
2019-01-19T06:34:49.846Z,15.32
2019-01-19T06:37:16.552Z,14.68
2019-01-19T06:39:43.351Z,15.32
2019-01-19T06:42:10.076Z,14.98
2019-01-19T06:44:37.118Z,15.38
2019-01-19T06:47:03.903Z,14.80
2019-01-19T06:49:30.810Z,14.68
2019-01-19T06:51:58.044Z,15.60
2019-01-19T06:54:28.627Z,14.00
2019-01-19T06:56:55.423Z,15.55
2019-01-19T06:59:22.163Z,14.40
2019-01-19T07:01:48.931Z,14.63
2019-01-19T07:04:15.631Z,15.88
2019-01-19T07:06:42.819Z,15.30
2019-01-19T07:09:09.617Z,15.75
2019-01-19T07:11:36.827Z,15.43
2019-01-19T07:14:03.635Z,14.90
2019-01-19T07:16:30.449Z,15.72
2019-01-19T07:18:57.443Z,14.78
2019-01-19T07:21:24.261Z,15.60
2019-01-19T07:23:51.343Z,15.75
2019-01-19T07:26:20.772Z,16.07
2019-01-19T07:28:49.288Z,15.95
2019-01-19T07:31:15.995Z,15.32
2019-01-19T07:33:43.013Z,16.40
2019-01-19T07:36:09.729Z,15.32
2019-01-19T07:38:36.691Z,15.90
2019-01-19T07:41:03.505Z,16.00
2019-01-19T07:43:30.863Z,15.58
2019-01-19T07:45:57.671Z,15.98
2019-01-19T07:48:24.687Z,16.75
2019-01-19T07:50:51.410Z,15.63
2019-01-19T07:53:18.209Z,15.65
2019-01-19T07:55:44.920Z,16.65
2019-01-19T07:58:11.635Z,17.32
2019-01-19T08:00:38.904Z,16.87
2019-01-19T08:03:05.619Z,16.75
2019-01-19T08:05:32.328Z,16.77
2019-01-19T08:07:59.251Z,15.95
2019-01-19T08:10:25.994Z,15.35
2019-01-19T08:12:52.795Z,14.85
2019-01-19T08:15:21.748Z,17.30
2019-01-19T08:17:48.669Z,17.73
2019-01-19T08:20:15.575Z,17.73
2019-01-19T08:22:42.577Z,17.23
2019-01-19T08:25:09.879Z,17.15
2019-01-19T08:27:36.889Z,16.32
2019-01-19T08:30:06.960Z,17.00
2019-01-19T08:32:36.888Z,17.95
2019-01-19T08:35:03.863Z,17.70
2019-01-19T08:37:30.571Z,17.62
2019-01-19T08:39:57.386Z,17.95
2019-01-19T08:42:24.091Z,18.55
2019-01-19T08:44:51.586Z,18.12
2019-01-19T08:47:18.292Z,18.77
2019-01-19T08:49:44.999Z,19.50
2019-01-19T08:52:11.709Z,19.20
2019-01-19T08:54:38.427Z,18.87
2019-01-19T08:57:05.123Z,19.62
2019-01-19T08:59:31.825Z,19.60
2019-01-19T09:01:58.520Z,18.77
2019-01-19T09:04:25.269Z,21.10
2019-01-19T09:06:52.133Z,19.27
2019-01-19T09:09:18.851Z,21.20
2019-01-19T09:11:45.546Z,19.15
2019-01-19T09:14:12.251Z,19.42
2019-01-19T09:16:40.558Z,19.75
2019-01-19T09:19:07.869Z,19.70
2019-01-19T09:21:34.571Z,20.70
2019-01-19T09:24:21.967Z,21.87
2019-01-19T09:26:48.666Z,21.45
2019-01-19T09:29:15.371Z,20.65
2019-01-19T09:31:42.087Z,20.68
2019-01-19T09:34:08.895Z,21.40
2019-01-19T09:36:35.896Z,22.07
2019-01-19T09:39:07.796Z,22.10
2019-01-19T09:41:34.503Z,23.10
2019-01-19T09:44:01.316Z,20.68
2019-01-19T09:46:28.616Z,19.30
2019-01-19T09:48:55.554Z,21.02
2019-01-19T09:51:22.363Z,21.20
2019-01-19T09:53:49.064Z,19.67
2019-01-19T09:56:15.981Z,20.85
2019-01-19T09:58:42.788Z,21.48
2019-01-19T10:01:09.496Z,20.08
2019-01-19T10:03:36.292Z,22.20
2019-01-19T10:06:03.383Z,21.55
2019-01-19T10:08:30.319Z,21.45
2019-01-19T10:10:57.243Z,21.33
2019-01-19T10:13:23.952Z,21.68
2019-01-19T10:15:50.657Z,21.45
2019-01-19T10:18:18.707Z,20.52
2019-01-19T10:20:45.519Z,20.32
2019-01-19T10:23:12.474Z,19.52
2019-01-19T10:25:39.179Z,19.55
2019-01-19T10:28:05.976Z,20.77
2019-01-19T10:30:32.795Z,18.55
2019-01-19T10:32:59.699Z,19.73
2019-01-19T10:35:26.506Z,19.12
2019-01-19T10:37:56.632Z,19.10
2019-01-19T10:40:22.139Z,20.02
2019-01-19T10:42:48.960Z,20.00
2019-01-19T10:45:18.091Z,20.00
2019-01-19T10:47:44.903Z,19.20
2019-01-19T10:50:12.970Z,19.12
2019-01-19T10:52:39.779Z,19.77
2019-01-19T10:55:07.511Z,18.62
2019-01-19T10:57:34.208Z,19.45
2019-01-19T11:00:01.011Z,19.10
2019-01-19T11:02:28.267Z,20.30
2019-01-19T11:04:54.951Z,19.12
2019-01-19T11:07:21.847Z,19.77
2019-01-19T11:09:48.578Z,18.30
2019-01-19T11:12:15.464Z,18.23
2019-01-19T11:14:42.189Z,18.27
2019-01-19T11:17:08.883Z,17.80
2019-01-19T11:19:35.697Z,18.27
2019-01-19T11:22:02.500Z,18.25
2019-01-19T11:24:29.311Z,19.15
2019-01-19T11:26:56.005Z,17.02
2019-01-19T11:29:22.703Z,16.85
2019-01-19T11:31:49.414Z,18.32
2019-01-19T11:34:16.111Z,18.05
2019-01-19T11:36:42.819Z,18.50
2019-01-19T11:39:09.524Z,17.05
2019-01-19T11:41:36.236Z,17.35
2019-01-19T11:44:03.274Z,16.35
2019-01-19T11:46:29.983Z,16.82
2019-01-19T11:48:56.694Z,16.77
2019-01-19T11:51:23.424Z,17.17
2019-01-19T11:53:50.231Z,16.00
2019-01-19T11:56:16.927Z,16.60
2019-01-19T11:58:43.635Z,15.45
2019-01-19T12:01:10.439Z,15.13
2019-01-19T12:03:37.155Z,14.83
2019-01-19T12:06:04.659Z,14.95
2019-01-19T12:08:31.468Z,15.20
2019-01-19T12:10:58.171Z,15.00
2019-01-19T12:13:25.263Z,14.55
2019-01-19T12:15:51.963Z,14.83
2019-01-19T12:18:18.675Z,15.13
2019-01-19T12:20:47.595Z,14.50
2019-01-19T12:23:14.510Z,14.47
2019-01-19T12:25:41.315Z,13.68
2019-01-19T12:28:08.375Z,13.95
2019-01-19T12:30:35.203Z,14.18
2019-01-19T12:33:02.178Z,13.43
2019-01-19T12:35:29.227Z,13.65
2019-01-19T12:37:56.727Z,14.10
2019-01-19T12:40:24.176Z,13.13
2019-01-19T12:42:54.093Z,12.98
2019-01-19T12:45:24.191Z,13.08
2019-01-19T12:47:51.103Z,13.48
2019-01-19T12:50:20.548Z,13.28
2019-01-19T12:52:47.473Z,13.80
2019-01-19T12:55:14.306Z,14.38
2019-01-19T12:57:41.111Z,13.83
2019-01-19T13:00:11.904Z,13.30
2019-01-19T13:02:39.127Z,13.20
2019-01-19T13:05:10.856Z,12.37
2019-01-19T13:07:37.671Z,12.47
2019-01-19T13:10:15.366Z,12.85
2019-01-19T13:13:03.715Z,12.20
2019-01-19T13:16:33.751Z,11.85
2019-01-19T13:19:14.715Z,12.68
2019-01-19T13:22:20.763Z,12.43
2019-01-19T13:25:28.391Z,11.25
2019-01-19T13:28:30.343Z,10.35
2019-01-19T13:31:14.790Z,10.10
2019-01-19T13:34:04.775Z,10.65
2019-01-19T13:36:59.547Z,9.40
2019-01-19T13:40:00.090Z,10.08
2019-01-19T13:43:17.825Z,13.08
2019-01-19T13:45:59.737Z,10.00
2019-01-19T13:49:04.251Z,9.70
2019-01-19T13:52:13.532Z,10.75
2019-01-19T13:55:17.610Z,10.72
2019-01-19T13:58:15.453Z,9.63
2019-01-19T14:01:20.719Z,9.68
2019-01-19T14:04:16.995Z,9.43
2019-01-19T14:07:06.803Z,9.18
2019-01-19T14:10:12.934Z,10.35
2019-01-19T14:13:39.764Z,10.48
2019-01-19T14:16:48.809Z,10.63
2019-01-19T14:19:30.243Z,10.05
2019-01-19T14:22:42.196Z,9.68
2019-01-19T14:25:35.931Z,10.82
2019-01-19T14:28:46.815Z,10.00
2019-01-19T14:31:31.879Z,10.15
2019-01-19T14:34:22.690Z,9.45
2019-01-19T14:37:28.774Z,9.40
2019-01-19T14:40:33.261Z,10.03
2019-01-19T14:43:43.284Z,10.15
2019-01-19T14:46:38.871Z,9.38
2019-01-19T14:49:31.124Z,9.83
2019-01-19T14:52:39.695Z,9.40
2019-01-19T14:55:49.535Z,10.20
2019-01-19T14:58:29.111Z,9.30
2019-01-19T15:04:36.889Z,10.10
2019-01-19T15:07:30.219Z,8.50
2019-01-19T15:10:31.131Z,8.48
2019-01-19T15:13:06.692Z,9.45
2019-01-19T15:15:59.051Z,8.73
2019-01-19T15:18:42.251Z,8.98
2019-01-19T15:21:43.842Z,9.53
2019-01-19T15:24:50.795Z,9.20
2019-01-19T15:27:45.287Z,9.13
2019-01-19T15:30:41.479Z,9.83
2019-01-19T15:33:50.351Z,9.80
2019-01-19T15:36:38.035Z,9.08
2019-01-19T15:39:19.295Z,9.65
2019-01-19T15:42:18.887Z,10.03
2019-01-19T15:45:29.455Z,9.68
2019-01-19T15:48:33.747Z,10.18
2019-01-19T15:51:47.210Z,9.93
2019-01-19T15:54:37.077Z,9.70
2019-01-19T15:57:28.497Z,9.40
2019-01-19T16:00:31.591Z,9.68
2019-01-19T16:03:34.071Z,10.15
2019-01-19T16:06:25.463Z,9.90
2019-01-19T16:09:18.356Z,9.58
2019-01-19T16:12:20.475Z,9.73
2019-01-19T16:14:59.398Z,9.90
2019-01-19T16:18:08.159Z,9.93
2019-01-19T16:21:25.879Z,10.08
2019-01-19T16:24:15.981Z,9.45
2019-01-19T16:27:30.523Z,10.25
2019-01-19T16:30:22.942Z,9.73
2019-01-19T16:33:08.257Z,10.15
2019-01-19T16:35:56.715Z,9.88
2019-01-19T16:38:47.163Z,10.30
2019-01-19T16:41:46.019Z,10.03
2019-01-19T16:45:04.403Z,9.70
2019-01-19T16:47:43.426Z,10.68
2019-01-19T16:50:46.414Z,9.40
2019-01-19T16:53:24.990Z,10.75
2019-01-19T16:56:09.744Z,10.10
2019-01-19T16:59:09.275Z,10.85
2019-01-19T17:02:20.055Z,10.20
2019-01-19T17:05:08.079Z,9.90
2019-01-19T17:08:05.467Z,9.88
2019-01-19T17:11:08.055Z,10.85
2019-01-19T17:14:13.888Z,11.60
2019-01-19T17:17:03.237Z,12.10
2019-01-19T17:19:54.447Z,10.72
2019-01-19T17:23:08.551Z,10.40
2019-01-19T17:25:55.621Z,11.00
2019-01-19T17:29:14.383Z,10.15
2019-01-19T17:32:28.104Z,11.15
2019-01-19T17:35:17.705Z,10.72
2019-01-19T17:37:51.329Z,10.98
2019-01-19T17:40:54.962Z,10.25
2019-01-19T17:43:46.831Z,10.88
2019-01-19T17:46:50.539Z,9.35
2019-01-19T17:49:44.419Z,10.90
2019-01-19T17:52:38.489Z,9.88
2019-01-19T17:55:36.525Z,10.88
2019-01-19T17:58:32.449Z,10.55
2019-01-19T18:01:21.604Z,10.45
2019-01-19T18:04:17.238Z,10.85
2019-01-19T18:07:11.099Z,10.38
2019-01-19T18:09:53.778Z,10.28
2019-01-19T18:12:48.004Z,10.43
2019-01-19T18:15:56.474Z,10.85
2019-01-19T18:19:06.731Z,9.63
2019-01-19T18:21:42.389Z,9.45
2019-01-19T18:24:40.770Z,10.35
2019-01-19T18:27:45.611Z,10.40
2019-01-19T18:30:39.269Z,10.90
2019-01-19T18:33:47.547Z,11.38
2019-01-19T18:36:27.139Z,11.40
2019-01-19T18:39:19.259Z,11.15
2019-01-19T18:42:11.566Z,10.05
2019-01-19T18:45:14.436Z,10.18
2019-01-19T18:47:50.542Z,10.68
2019-01-19T18:50:37.204Z,9.35
2019-01-19T18:53:42.369Z,10.15
2019-01-19T18:57:03.166Z,9.70
2019-01-19T19:00:16.565Z,9.63
2019-01-19T19:03:37.155Z,9.18
2019-01-19T19:06:54.102Z,9.03
2019-01-19T19:09:40.143Z,9.73
2019-01-19T19:12:20.425Z,8.93
2019-01-19T19:15:24.078Z,11.15
2019-01-19T19:18:28.431Z,9.18
2019-01-19T19:21:19.591Z,9.80
2019-01-19T19:24:25.752Z,8.83
2019-01-19T19:27:33.828Z,9.65
2019-01-19T19:30:19.093Z,8.90
2019-01-19T19:33:14.815Z,9.08
2019-01-19T19:36:04.599Z,9.75
2019-01-19T19:39:31.412Z,9.60
2019-01-19T19:42:28.781Z,9.20
2019-01-19T19:45:35.190Z,9.28
2019-01-19T19:48:21.767Z,9.58
2019-01-19T19:51:18.553Z,8.78
2019-01-19T19:53:45.435Z,9.58
2019-01-19T19:56:11.488Z,9.18
2019-01-19T19:58:38.301Z,9.18
2019-01-19T20:01:05.527Z,8.88
2019-01-19T20:03:32.425Z,8.35
2019-01-19T20:05:59.231Z,9.35
2019-01-19T20:08:25.938Z,9.65
2019-01-19T20:10:52.848Z,9.48
2019-01-19T20:13:19.659Z,9.63
2019-01-19T20:15:46.467Z,9.53
2019-01-19T20:18:13.196Z,9.78
2019-01-19T20:20:39.902Z,9.75
2019-01-19T20:23:06.599Z,9.48
2019-01-19T20:25:33.306Z,10.05
2019-01-19T20:28:00.019Z,10.00
2019-01-19T20:30:26.947Z,10.55
2019-01-19T20:32:53.647Z,10.15
2019-01-19T20:35:20.359Z,9.73
2019-01-19T20:37:47.067Z,10.15
2019-01-19T20:40:13.883Z,9.58
2019-01-19T20:42:40.600Z,10.60
2019-01-19T20:45:09.081Z,10.30
2019-01-19T20:47:35.783Z,10.15
2019-01-19T20:50:04.007Z,9.90
2019-01-19T20:52:30.715Z,10.50
2019-01-19T20:54:57.727Z,10.90
2019-01-19T20:57:24.522Z,9.88
2019-01-19T20:59:51.328Z,10.18
2019-01-19T21:02:18.032Z,9.93
2019-01-19T21:04:44.739Z,9.50
2019-01-19T21:07:11.539Z,9.88
2019-01-19T21:09:38.260Z,9.93
2019-01-19T21:12:04.962Z,10.03
2019-01-19T21:14:31.651Z,9.95
2019-01-19T21:16:58.355Z,10.20
2019-01-19T21:19:25.065Z,9.38
2019-01-19T21:21:51.751Z,9.35
2019-01-19T21:24:18.468Z,10.10
2019-01-19T21:26:45.162Z,9.93
2019-01-19T21:29:11.879Z,9.93
2019-01-19T21:31:38.949Z,9.78
2019-01-19T21:34:05.655Z,9.70
2019-01-19T21:36:32.368Z,9.65
2019-01-19T21:38:59.058Z,10.25
2019-01-19T21:41:25.775Z,10.10
2019-01-19T21:43:52.488Z,9.55
2019-01-19T21:46:19.181Z,10.05
2019-01-19T21:48:45.883Z,9.93
2019-01-19T21:51:12.587Z,10.85
2019-01-19T21:53:39.298Z,10.88
2019-01-19T21:56:06.099Z,10.40
2019-01-19T21:58:32.803Z,11.00
2019-01-19T22:00:59.515Z,10.30
2019-01-19T22:03:26.419Z,10.80
2019-01-19T22:05:53.131Z,10.48
2019-01-19T22:08:19.827Z,10.72
2019-01-19T22:10:46.669Z,10.38
2019-01-19T22:13:13.847Z,10.58
2019-01-19T22:15:40.566Z,11.35
2019-01-19T22:18:07.276Z,11.05
2019-01-19T22:20:33.975Z,10.55
2019-01-19T22:23:00.703Z,10.18
2019-01-19T22:25:27.399Z,10.65
2019-01-19T22:27:54.211Z,11.03
2019-01-19T22:30:22.901Z,10.78
2019-01-19T22:32:51.874Z,10.85
2019-01-19T22:35:18.875Z,10.18
2019-01-19T22:37:45.579Z,10.72
2019-01-19T22:40:14.470Z,10.80
2019-01-19T22:42:41.371Z,11.35
2019-01-19T22:45:09.901Z,10.72
2019-01-19T22:47:36.619Z,11.53
2019-01-19T22:50:04.835Z,11.30
2019-01-19T22:52:31.539Z,12.07
2019-01-19T22:54:58.251Z,11.10
2019-01-19T22:57:24.948Z,11.43
2019-01-19T22:59:51.655Z,11.08
2019-01-19T23:02:18.463Z,11.40
2019-01-19T23:04:45.163Z,11.00
2019-01-19T23:07:11.967Z,11.30
2019-01-19T23:09:38.667Z,11.55
2019-01-19T23:12:05.644Z,11.30
2019-01-19T23:14:32.951Z,11.28
2019-01-19T23:16:59.753Z,11.68
2019-01-19T23:19:26.559Z,11.78
2019-01-19T23:21:53.261Z,12.25
2019-01-19T23:24:19.968Z,11.85
2019-01-19T23:26:47.363Z,11.73
2019-01-19T23:29:14.088Z,11.97
2019-01-19T23:31:40.998Z,11.78
2019-01-19T23:34:07.699Z,11.80
2019-01-19T23:36:34.507Z,11.22
2019-01-19T23:39:01.212Z,11.08
2019-01-19T23:41:27.923Z,10.98
2019-01-19T23:43:54.714Z,11.70
2019-01-19T23:46:22.063Z,12.03
2019-01-19T23:48:48.771Z,10.82
2019-01-19T23:51:15.487Z,11.48
2019-01-19T23:53:42.471Z,11.33
2019-01-19T23:56:09.168Z,11.43
2019-01-19T23:58:35.873Z,12.68
